Time,TemperatureF,DewpointF,PressureIn,WindDirection,WindDirectionDegrees,WindSpeedMPH,WindSpeedGustMPH,Humidity,HourlyPrecipIn,Conditions,Clouds,dailyrainin,SoftwareType,DateUTC
2014-12-17 00:03:00,38.0,36.0,30.10,SW,229,0.0,0.0,92,0.00,,,0.09,weatherlink.com 1.10,2014-12-17 05:03:00,
2014-12-17 00:34:00,38.0,36.0,30.09,SW,229,0.0,2.0,93,0.00,,,0.00,weatherlink.com 1.10,2014-12-17 05:34:00,
2014-12-17 00:49:00,38.0,36.0,30.09,SW,226,0.0,0.0,92,0.00,,,0.00,weatherlink.com 1.10,2014-12-17 05:49:00,
2014-12-17 01:04:00,37.5,35.0,30.09,SW,226,0.0,0.0,92,0.00,,,0.00,weatherlink.com 1.10,2014-12-17 06:04:00,
2014-12-17 01:19:00,37.2,35.0,30.10,SW,226,0.0,0.0,93,0.00,,,0.00,weatherlink.com 1.10,2014-12-17 06:19:00,
2014-12-17 01:49:00,36.5,35.0,30.10,SW,226,0.0,0.0,93,0.00,,,0.00,weatherlink.com 1.10,2014-12-17 06:49:00,
2014-12-17 02:19:00,36.0,35.0,30.10,SW,226,0.0,0.0,94,0.00,,,0.00,weatherlink.com 1.10,2014-12-17 07:19:00,
2014-12-17 02:34:00,35.7,34.0,30.09,SW,226,0.0,0.0,94,0.00,,,0.00,weatherlink.com 1.10,2014-12-17 07:34:00,
2014-12-17 02:49:00,35.6,34.0,30.10,SW,226,0.0,0.0,94,0.00,,,0.00,weatherlink.com 1.10,2014-12-17 07:49:00,
2014-12-17 03:04:00,35.4,34.0,30.11,SW,226,0.0,0.0,94,0.00,,,0.00,weatherlink.com 1.10,2014-12-17 08:04:00,
2014-12-17 03:49:00,34.9,34.0,30.11,SW,226,0.0,0.0,95,0.00,,,0.00,weatherlink.com 1.10,2014-12-17 08:49:00,
2014-12-17 04:19:00,35.1,34.0,30.11,SW,226,0.0,0.0,95,0.00,,,0.00,weatherlink.com 1.10,2014-12-17 09:19:00,
2014-12-17 04:34:00,34.9,34.0,30.11,SW,226,0.0,0.0,95,0.00,,,0.00,weatherlink.com 1.10,2014-12-17 09:34:00,
2014-12-17 04:49:00,34.6,33.0,30.11,SW,226,0.0,0.0,95,0.00,,,0.00,weatherlink.com 1.10,2014-12-17 09:49:00,
2014-12-17 05:04:00,34.4,33.0,30.11,SW,226,0.0,0.0,95,0.00,,,0.00,weatherlink.com 1.10,2014-12-17 10:04:00,
2014-12-17 05:19:00,34.3,33.0,30.12,SW,226,0.0,0.0,95,0.00,,,0.00,weatherlink.com 1.10,2014-12-17 10:19:00,
2014-12-17 05:34:00,34.3,33.0,30.13,SW,226,0.0,0.0,95,0.00,,,0.00,weatherlink.com 1.10,2014-12-17 10:34:00,
2014-12-17 05:49:00,33.9,33.0,30.13,SW,226,0.0,0.0,95,0.00,,,0.00,weatherlink.com 1.10,2014-12-17 10:49:00,
2014-12-17 06:04:00,33.7,33.0,30.13,SW,226,0.0,-999.0,95,-99.99,,,0.00,weatherlink.com 1.10,2014-12-17 11:04:00,
2014-12-17 06:19:00,33.5,32.0,30.14,SW,226,0.0,0.0,95,0.00,,,0.00,weatherlink.com 1.10,2014-12-17 11:19:00,
2014-12-17 06:34:00,33.2,32.0,30.13,SW,226,0.0,0.0,95,0.00,,,0.00,weatherlink.com 1.10,2014-12-17 11:34:00,
2014-12-17 06:49:00,33.6,33.0,30.13,SW,226,0.0,1.0,96,0.00,,,0.00,weatherlink.com 1.10,2014-12-17 11:49:00,
2014-12-17 07:04:00,33.4,32.0,30.14,SW,226,0.0,0.0,95,0.00,,,0.00,weatherlink.com 1.10,2014-12-17 12:04:00,
2014-12-17 07:19:00,33.2,32.0,30.14,SW,226,0.0,1.0,95,0.00,,,0.00,weatherlink.com 1.10,2014-12-17 12:19:00,
2014-12-17 07:34:00,33.1,32.0,30.14,SW,226,0.0,0.0,96,0.00,,,0.00,weatherlink.com 1.10,2014-12-17 12:34:00,
2014-12-17 07:49:00,33.0,32.0,30.14,SW,226,0.0,0.0,95,0.00,,,0.00,weatherlink.com 1.10,2014-12-17 12:49:00,
2014-12-17 08:04:00,33.2,32.0,30.15,SW,226,0.0,0.0,96,0.00,,,0.00,weatherlink.com 1.10,2014-12-17 13:04:00,
2014-12-17 08:19:00,33.8,33.0,30.15,SW,226,0.0,0.0,96,0.00,,,0.00,weatherlink.com 1.10,2014-12-17 13:19:00,
2014-12-17 08:34:00,35.9,35.0,30.16,SW,234,0.0,2.0,96,0.00,,,0.00,weatherlink.com 1.10,2014-12-17 13:34:00,
2014-12-17 08:49:00,38.1,37.0,30.16,SW,234,0.0,0.0,96,0.00,,,0.00,weatherlink.com 1.10,2014-12-17 13:49:00,
2014-12-17 09:05:00,40.0,39.0,30.17,SW,234,0.0,0.0,97,0.00,,,0.00,weatherlink.com 1.10,2014-12-17 14:05:00,
2014-12-17 09:20:00,42.7,42.0,30.17,SW,232,0.0,4.0,97,0.00,,,0.00,weatherlink.com 1.10,2014-12-17 14:20:00,
2014-12-17 09:35:00,47.1,40.0,30.18,SW,233,1.0,6.0,77,0.00,,,0.00,weatherlink.com 1.10,2014-12-17 14:35:00,
2014-12-17 09:50:00,48.8,40.0,30.19,SW,217,4.0,6.0,72,0.00,,,0.00,weatherlink.com 1.10,2014-12-17 14:50:00,
2014-12-17 10:05:00,50.2,40.0,30.19,WSW,238,4.0,11.0,69,0.00,,,0.00,weatherlink.com 1.10,2014-12-17 15:05:00,
2014-12-17 10:20:00,51.4,40.0,30.19,WSW,242,2.0,6.0,65,0.00,,,0.00,weatherlink.com 1.10,2014-12-17 15:20:00,
2014-12-17 10:35:00,52.4,40.0,30.19,SW,234,3.0,5.0,62,0.00,,,0.00,weatherlink.com 1.10,2014-12-17 15:35:00,
2014-12-17 10:50:00,52.8,39.0,30.18,SW,232,0.0,5.0,60,0.00,,,0.00,weatherlink.com 1.10,2014-12-17 15:50:00,
2014-12-17 11:05:00,53.1,39.0,30.18,WSW,238,0.0,6.0,60,0.00,,,0.00,weatherlink.com 1.10,2014-12-17 16:05:00,
2014-12-17 11:20:00,54.2,40.0,30.18,SE,136,0.0,4.0,59,0.00,,,0.00,weatherlink.com 1.10,2014-12-17 16:20:00,
2014-12-17 11:35:00,55.4,40.0,30.17,SE,137,0.0,4.0,57,0.00,,,0.00,weatherlink.com 1.10,2014-12-17 16:35:00,
2014-12-17 11:50:00,55.8,40.0,30.16,East,80,0.0,3.0,55,0.00,,,0.00,weatherlink.com 1.10,2014-12-17 16:50:00,
2014-12-17 12:05:00,56.4,39.0,30.15,ENE,76,0.0,4.0,52,0.00,,,0.00,weatherlink.com 1.10,2014-12-17 17:05:00,
2014-12-17 12:20:00,56.4,39.0,30.14,SW,222,0.0,2.0,53,0.00,,,0.00,weatherlink.com 1.10,2014-12-17 17:20:00,
2014-12-17 12:35:00,56.3,39.0,30.13,ESE,110,0.0,3.0,53,0.00,,,0.00,weatherlink.com 1.10,2014-12-17 17:35:00,
2014-12-17 12:50:00,56.0,39.0,30.13,WSW,255,1.0,6.0,53,0.00,,,0.00,weatherlink.com 1.10,2014-12-17 17:50:00,
2014-12-17 13:05:00,55.8,39.0,30.12,SW,230,2.0,3.0,54,0.00,,,0.00,weatherlink.com 1.10,2014-12-17 18:05:00,
2014-12-17 13:20:00,56.8,39.0,30.11,ESE,121,4.0,5.0,51,0.00,,,0.00,weatherlink.com 1.10,2014-12-17 18:20:00,
2014-12-17 13:35:00,56.8,39.0,30.11,WSW,248,0.0,4.0,52,0.00,,,0.00,weatherlink.com 1.10,2014-12-17 18:35:00,
2014-12-17 13:50:00,57.8,39.0,30.10,ENE,63,0.0,4.0,49,0.00,,,0.00,weatherlink.com 1.10,2014-12-17 18:50:00,
2014-12-17 14:05:00,58.0,39.0,30.10,SE,138,0.0,3.0,49,0.00,,,0.00,weatherlink.com 1.10,2014-12-17 19:05:00,
2014-12-17 14:20:00,57.5,39.0,30.10,WSW,240,0.0,5.0,50,0.00,,,0.00,weatherlink.com 1.10,2014-12-17 19:20:00,
2014-12-17 14:36:00,57.8,39.0,30.09,SW,231,0.0,4.0,50,0.00,,,0.00,weatherlink.com 1.10,2014-12-17 19:36:00,
2014-12-17 14:51:00,58.7,39.0,30.08,ENE,62,1.0,2.0,48,0.00,,,0.00,weatherlink.com 1.10,2014-12-17 19:51:00,
2014-12-17 15:06:00,58.9,40.0,30.08,ESE,115,0.0,3.0,49,0.00,,,0.00,weatherlink.com 1.10,2014-12-17 20:06:00,
2014-12-17 15:21:00,59.1,38.0,30.08,ENE,64,0.0,2.0,46,0.00,,,0.00,weatherlink.com 1.10,2014-12-17 20:21:00,
2014-12-17 15:36:00,59.3,38.0,30.08,East,86,0.0,2.0,46,0.00,,,0.00,weatherlink.com 1.10,2014-12-17 20:36:00,
2014-12-17 15:51:00,59.2,39.0,30.09,ENE,72,0.0,1.0,47,0.00,,,0.00,weatherlink.com 1.10,2014-12-17 20:51:00,
2014-12-17 16:06:00,59.0,38.0,30.09,ESE,120,0.0,3.0,46,0.00,,,0.00,weatherlink.com 1.10,2014-12-17 21:06:00,
2014-12-17 16:21:00,58.3,39.0,30.10,SE,128,0.0,0.0,49,0.00,,,0.00,weatherlink.com 1.10,2014-12-17 21:21:00,
2014-12-17 16:36:00,57.5,39.0,30.09,SE,128,0.0,0.0,50,0.00,,,0.00,weatherlink.com 1.10,2014-12-17 21:36:00,
2014-12-17 16:51:00,56.6,39.0,30.10,SE,128,0.0,0.0,53,0.00,,,0.00,weatherlink.com 1.10,2014-12-17 21:51:00,
2014-12-17 17:06:00,55.6,40.0,30.10,SE,128,0.0,0.0,56,0.00,,,0.00,weatherlink.com 1.10,2014-12-17 22:06:00,
2014-12-17 17:21:00,54.3,39.0,30.10,SE,128,0.0,0.0,57,0.00,,,0.00,weatherlink.com 1.10,2014-12-17 22:21:00,
2014-12-17 17:36:00,53.0,40.0,30.10,SE,128,0.0,0.0,61,0.00,,,0.00,weatherlink.com 1.10,2014-12-17 22:36:00,
2014-12-17 17:51:00,51.8,40.0,30.11,SE,128,0.0,0.0,64,0.00,,,0.00,weatherlink.com 1.10,2014-12-17 22:51:00,
2014-12-17 18:06:00,51.4,39.0,30.11,SE,128,0.0,0.0,64,0.00,,,0.00,weatherlink.com 1.10,2014-12-17 23:06:00,
2014-12-17 18:21:00,50.7,40.0,30.11,SE,128,0.0,0.0,66,0.00,,,0.00,weatherlink.com 1.10,2014-12-17 23:21:00,